Cape Romanzof LRRS Airport Cape Romanzof US
ICAO: PACZ
IATA:
Category: Medium
Scheduled Services:

Elevation: 464 ft
TransAlt. 18000 ft.

Airport Communications:
ANCHORAGE ARTCC:124.5
ANCHORAGE CNTR:132.5
KENAI RDO:122.1
INFO:126.2

PACZ Zoom In..

If Map Doesn't Load, Click Here

Runways:

(A) RW 02 length 3925 ft width 161 ft
---- / hdg 16

(B) RW 20 length 3925 ft width 161 ft
---- / hdg 196

Location; PACZ
Day. 23 / Time. 08.02 Zulu
* Altimeter: 29.20
* Temperature: 09° c. 48.2°f.
* Wind from: 010° Speed 22 kn.
Dewpoint: 09° c.
Visibility: 10 Statute Miles.
Clouds: Broken 300 ft.
Conditions: Light Rain.

PACZ 230802Z AUTO 01022KT 260V030 10SM -RA BKN003 09/09 A2920 RMK AO2 SLP891


Wind From 010°
Speed 22 kn.

 
 
jpsmedia.com for Web Design worldairports.se 2018   terms of use